Time;durP1;ratioP1;P1;durP2;ratioP2;P2;SDS_P1;SDS_P2;PMS_P1;PMS_P2;Temp;Humidity;BMP_temperature;BMP_pressure;BME280_temperature;BME280_humidity;BME280_pressure;Samples;Min_cycle;Max_cycle;Signal;HPM_P1;HPM_P2
2023/08/21 00:01:14;;;;;;;7.00;3.33;;;;;;;19.48;nan;102220.13;5022614;28;20033;-76
2023/08/21 00:03:39;;;;;;;5.45;2.70;;;;;;;19.61;nan;102234.59;5020179;28;20453;-75
2023/08/21 00:06:05;;;;;;;6.97;2.83;;;;;;;19.61;nan;102246.97;5025171;28;20053;-75
2023/08/21 00:08:30;;;;;;;7.50;2.90;;;;;;;19.58;nan;102249.75;5021434;28;20380;-76
2023/08/21 00:10:55;;;;;;;10.93;3.10;;;;;;;19.59;nan;102246.19;5012898;28;20034;-75
2023/08/21 00:13:21;;;;;;;7.18;2.83;;;;;;;19.61;nan;102244.34;5013771;28;20030;-76
2023/08/21 00:15:46;;;;;;;6.63;3.10;;;;;;;19.54;nan;102234.91;5022542;28;20025;-75
2023/08/21 00:18:11;;;;;;;4.90;2.40;;;;;;;19.40;nan;102225.72;5021338;28;20033;-75
2023/08/21 00:20:37;;;;;;;7.88;2.95;;;;;;;19.30;nan;102219.09;5020017;28;20113;-75
2023/08/21 00:23:02;;;;;;;8.13;3.05;;;;;;;19.26;nan;102220.13;5027685;28;20097;-75
2023/08/21 00:25:27;;;;;;;6.38;2.70;;;;;;;19.17;nan;102221.31;5013831;28;20445;-76
2023/08/21 00:27:53;;;;;;;6.80;2.58;;;;;;;19.06;nan;102223.50;5016999;28;20073;-76
2023/08/21 00:30:18;;;;;;;10.63;2.70;;;;;;;18.99;nan;102221.13;5022349;28;20079;-76
2023/08/21 00:32:43;;;;;;;5.78;2.42;;;;;;;18.90;nan;102227.63;5021887;28;20435;-76
2023/08/21 00:35:09;;;;;;;8.35;2.83;;;;;;;18.85;nan;102219.88;5018003;28;20041;-76
2023/08/21 00:37:34;;;;;;;8.10;2.78;;;;;;;18.78;nan;102222.78;5025641;28;20029;-76
2023/08/21 00:39:59;;;;;;;6.88;2.70;;;;;;;18.71;nan;102219.47;5021606;28;20033;-75
2023/08/21 00:42:25;;;;;;;7.93;2.88;;;;;;;18.70;nan;102215.09;5022518;28;20032;-75
2023/08/21 00:44:51;;;;;;;10.07;2.95;;;;;;;18.69;nan;102222.16;5022775;28;20025;-75
2023/08/21 00:47:16;;;;;;;7.57;3.15;;;;;;;18.64;nan;102225.91;5018901;28;20025;-76
2023/08/21 00:49:42;;;;;;;5.43;2.58;;;;;;;18.66;nan;102227.56;5021420;28;20105;-76
2023/08/21 00:52:12;;;;;;;7.32;3.05;;;;;;;18.62;nan;102227.72;5023020;28;20377;-76
2023/08/21 00:54:38;;;;;;;8.20;2.90;;;;;;;18.70;nan;102234.47;5014336;28;20034;-75
2023/08/21 00:57:04;;;;;;;6.85;3.03;;;;;;;18.76;nan;102230.75;5023093;28;20075;-75
2023/08/21 00:59:30;;;;;;;11.55;4.13;;;;;;;18.78;nan;102231.59;5020419;28;20034;-76
2023/08/21 01:01:55;;;;;;;7.75;3.33;;;;;;;18.76;nan;102230.75;5022409;28;20021;-76
2023/08/21 01:04:21;;;;;;;10.40;3.55;;;;;;;18.81;nan;102235.91;5023757;28;20037;-75
2023/08/21 01:06:48;;;;;;;8.20;2.80;;;;;;;18.92;nan;102245.16;5024162;28;20049;-76
2023/08/21 01:10:01;;;;;;;6.82;2.90;;;;;;;19.03;nan;102238.59;5021146;28;20084;-76
2023/08/21 01:12:47;;;;;;;6.95;2.85;;;;;;;18.95;nan;102231.81;4950749;29;20150;-75
2023/08/21 01:15:14;;;;;;;8.00;2.83;;;;;;;18.89;nan;102221.47;4953546;29;20189;-75
2023/08/21 01:17:40;;;;;;;5.25;2.90;;;;;;;18.79;nan;102220.09;4998985;28;20037;-76
2023/08/21 01:20:08;;;;;;;6.15;2.60;;;;;;;18.67;nan;102210.81;5025002;28;20033;-75
2023/08/21 01:22:39;;;;;;;7.82;2.88;;;;;;;18.49;nan;102200.88;5017306;28;20034;-75
2023/08/21 01:25:09;;;;;;;6.68;2.95;;;;;;;18.44;nan;102213.38;5016348;28;20036;-76
2023/08/21 01:27:35;;;;;;;5.07;2.90;;;;;;;18.24;nan;102190.28;5024660;28;20484;-75
2023/08/21 01:30:02;;;;;;;7.35;3.28;;;;;;;18.27;nan;102206.03;5012865;28;20034;-76
2023/08/21 01:32:45;;;;;;;8.18;3.28;;;;;;;18.26;nan;102209.59;5018989;28;20405;-75
2023/08/21 01:35:12;;;;;;;6.88;3.30;;;;;;;18.23;nan;102209.69;5011482;28;20121;-76
2023/08/21 01:37:37;;;;;;;8.40;3.17;;;;;;;18.17;nan;102200.19;5026060;28;20081;-75
2023/08/21 01:40:04;;;;;;;7.22;3.67;;;;;;;18.10;nan;102192.56;5018516;28;20509;-75
2023/08/21 01:42:29;;;;;;;7.60;4.10;;;;;;;18.15;nan;102194.13;5023774;28;20068;-76
2023/08/21 01:44:54;;;;;;;11.10;3.65;;;;;;;18.12;nan;102193.38;5024646;28;20480;-75
2023/08/21 01:47:20;;;;;;;11.00;3.78;;;;;;;18.09;nan;102198.75;5022350;28;20026;-76
2023/08/21 01:49:45;;;;;;;11.27;4.10;;;;;;;18.01;nan;102199.00;5025653;28;20033;-76
2023/08/21 01:52:10;;;;;;;10.95;3.45;;;;;;;17.97;nan;102214.06;5020267;28;20087;-75
2023/08/21 01:54:36;;;;;;;9.68;3.55;;;;;;;17.92;nan;102216.00;5025206;28;20036;-75
2023/08/21 01:57:01;;;;;;;10.32;3.38;;;;;;;17.87;nan;102223.19;5024309;28;20022;-75
2023/08/21 01:59:26;;;;;;;8.73;3.88;;;;;;;17.90;nan;102224.88;5019542;28;20477;-76
2023/08/21 02:01:52;;;;;;;9.13;3.92;;;;;;;17.90;nan;102225.72;5013994;28;20537;-76
2023/08/21 02:04:17;;;;;;;9.88;3.90;;;;;;;17.86;nan;102216.19;5023978;28;20033;-75
2023/08/21 02:06:44;;;;;;;9.43;3.85;;;;;;;17.93;nan;102223.00;5024536;28;20056;-76
2023/08/21 02:09:09;;;;;;;11.88;4.63;;;;;;;18.01;nan;102226.22;5023269;28;20087;-75
2023/08/21 02:11:35;;;;;;;6.78;3.60;;;;;;;18.01;nan;102225.38;5016071;28;20041;-76
2023/08/21 02:14:00;;;;;;;9.65;3.58;;;;;;;18.07;nan;102233.09;5024189;28;20036;-76
2023/08/21 02:16:25;;;;;;;6.35;4.03;;;;;;;17.98;nan;102231.63;5018852;28;20384;-76
2023/08/21 02:18:51;;;;;;;7.50;3.50;;;;;;;17.96;nan;102232.59;5024624;28;20026;-76
2023/08/21 02:21:16;;;;;;;7.72;3.70;;;;;;;17.84;nan;102227.69;5026331;28;20105;-75
2023/08/21 02:23:41;;;;;;;8.52;3.85;;;;;;;17.69;nan;102207.91;5023292;28;20018;-75
2023/08/21 02:26:07;;;;;;;9.07;3.40;;;;;;;17.81;nan;102227.78;5013688;28;20029;-75
2023/08/21 02:28:32;;;;;;;10.73;3.88;;;;;;;17.82;nan;102230.41;5021517;28;20040;-75
2023/08/21 02:30:57;;;;;;;9.27;3.30;;;;;;;17.75;nan;102226.16;5018440;28;20041;-75
2023/08/21 02:33:23;;;;;;;9.55;3.47;;;;;;;17.74;nan;102225.31;5012410;28;20037;-75
2023/08/21 02:35:48;;;;;;;7.03;3.72;;;;;;;17.68;nan;102222.00;5021700;28;20449;-75
2023/08/21 02:38:13;;;;;;;4.78;3.38;;;;;;;17.66;nan;102221.22;5024515;28;20057;-75
2023/08/21 02:40:38;;;;;;;7.55;3.83;;;;;;;17.57;nan;102218.84;5017663;28;20437;-76
2023/08/21 02:43:04;;;;;;;8.32;4.47;;;;;;;17.53;nan;102223.38;5025311;28;20026;-75
2023/08/21 02:45:30;;;;;;;7.90;3.80;;;;;;;17.56;nan;102220.63;5010089;28;20033;-76
2023/08/21 02:47:55;;;;;;;7.97;3.75;;;;;;;17.53;nan;102226.84;5015689;28;20033;-76
2023/08/21 02:50:21;;;;;;;7.88;3.75;;;;;;;17.48;nan;102228.75;5024274;28;20040;-75
2023/08/21 02:52:46;;;;;;;8.15;3.63;;;;;;;17.47;nan;102227.03;5022133;28;20034;-76
2023/08/21 02:55:11;;;;;;;8.98;3.75;;;;;;;17.42;nan;102222.81;5021450;28;20064;-75
2023/08/21 02:57:37;;;;;;;10.85;4.07;;;;;;;17.40;nan;102228.13;5022833;28;20040;-76
2023/08/21 03:00:02;;;;;;;9.68;3.78;;;;;;;17.39;nan;102225.53;5026510;28;20057;-75
2023/08/21 03:02:28;;;;;;;6.18;3.67;;;;;;;17.30;nan;102231.97;5018460;28;20033;-75
2023/08/21 03:04:53;;;;;;;10.93;3.47;;;;;;;17.25;nan;102229.44;5022036;28;20419;-75
2023/08/21 03:07:19;;;;;;;9.73;4.18;;;;;;;17.21;nan;102232.22;5021796;28;20457;-75
2023/08/21 03:09:46;;;;;;;11.88;4.75;;;;;;;17.20;nan;102228.72;5026042;28;20072;-76
2023/08/21 03:12:12;;;;;;;7.72;4.47;;;;;;;17.17;nan;102226.19;5023241;28;20385;-76
2023/08/21 03:14:37;;;;;;;9.18;4.22;;;;;;;17.23;nan;102235.66;5021486;28;20025;-76
2023/08/21 03:17:03;;;;;;;10.05;4.50;;;;;;;17.18;nan;102227.03;5023406;28;20511;-76
2023/08/21 03:19:28;;;;;;;9.30;4.90;;;;;;;17.16;nan;102232.34;5024525;28;20033;-75
2023/08/21 03:21:53;;;;;;;7.20;4.40;;;;;;;17.14;nan;102228.91;5019059;28;20043;-76
2023/08/21 03:24:19;;;;;;;9.48;4.93;;;;;;;17.07;nan;102220.31;5013735;28;20037;-75
2023/08/21 03:26:44;;;;;;;8.85;5.47;;;;;;;17.09;nan;102234.28;5020367;28;20029;-75
2023/08/21 03:29:10;;;;;;;7.68;4.82;;;;;;;16.98;nan;102223.22;5022618;28;20380;-75
2023/08/21 03:31:35;;;;;;;9.50;5.40;;;;;;;17.00;nan;102239.84;5022161;28;20064;-75
2023/08/21 03:34:00;;;;;;;9.98;5.20;;;;;;;16.96;nan;102235.53;5022630;28;20382;-75
2023/08/21 03:36:31;;;;;;;10.68;5.63;;;;;;;16.93;nan;102229.50;5021885;28;20500;-75
2023/08/21 03:39:00;;;;;;;11.15;5.32;;;;;;;16.94;nan;102225.94;5019235;28;20410;-75
2023/08/21 03:41:26;;;;;;;9.93;5.15;;;;;;;16.81;nan;102222.81;5020678;28;20032;-75
2023/08/21 03:43:51;;;;;;;7.00;5.20;;;;;;;16.83;nan;102227.13;5021147;28;20026;-75
2023/08/21 03:46:16;;;;;;;8.40;4.78;;;;;;;16.78;nan;102225.53;5022271;28;20076;-75
2023/08/21 03:48:42;;;;;;;8.95;4.97;;;;;;;16.76;nan;102224.72;5023665;28;20021;-75
2023/08/21 03:51:07;;;;;;;7.43;5.00;;;;;;;16.70;nan;102224.84;5020031;28;20432;-75
2023/08/21 03:53:32;;;;;;;10.98;5.00;;;;;;;16.65;nan;102222.34;5025324;28;20042;-75
2023/08/21 03:55:58;;;;;;;12.75;6.32;;;;;;;16.62;nan;102228.53;5020235;28;20029;-75
2023/08/21 03:58:25;;;;;;;8.25;5.38;;;;;;;16.65;nan;102229.38;5021849;28;20026;-75
2023/08/21 04:00:50;;;;;;;10.45;5.30;;;;;;;16.59;nan;102225.13;5022607;28;20021;-75
2023/08/21 04:03:16;;;;;;;9.70;5.10;;;;;;;16.54;nan;102212.06;5022459;28;20043;-75
2023/08/21 04:05:41;;;;;;;7.65;5.18;;;;;;;16.57;nan;102217.25;5020373;28;20049;-75
2023/08/21 04:08:06;;;;;;;9.50;5.70;;;;;;;16.54;nan;102213.84;5019098;28;20025;-75
2023/08/21 04:10:32;;;;;;;9.38;4.97;;;;;;;16.51;nan;102212.19;5016464;28;20034;-75
2023/08/21 04:12:57;;;;;;;10.98;5.22;;;;;;;16.54;nan;102214.72;5012161;28;20037;-75
2023/08/21 04:15:22;;;;;;;7.55;5.18;;;;;;;16.56;nan;102233.97;5017985;28;20473;-75
2023/08/21 04:17:48;;;;;;;8.23;5.40;;;;;;;16.60;nan;102230.34;5022658;28;20629;-75
2023/08/21 04:20:13;;;;;;;11.93;5.57;;;;;;;16.61;nan;102242.63;5024499;28;20039;-75
2023/08/21 04:22:38;;;;;;;8.20;5.45;;;;;;;16.55;nan;102231.38;5021952;28;20539;-75
2023/08/21 04:25:04;;;;;;;9.02;5.28;;;;;;;16.65;nan;102242.53;5021708;28;20029;-75
2023/08/21 04:27:29;;;;;;;10.02;5.47;;;;;;;16.75;nan;102249.31;5023222;28;20041;-75
2023/08/21 04:29:54;;;;;;;7.32;5.15;;;;;;;16.82;nan;102249.09;5020752;28;20041;-75
2023/08/21 04:32:20;;;;;;;9.40;5.30;;;;;;;16.87;nan;102248.09;5020833;28;20029;-75
2023/08/21 04:34:45;;;;;;;8.93;5.72;;;;;;;16.91;nan;102255.91;5022971;28;20083;-75
2023/08/21 04:37:10;;;;;;;14.05;5.60;;;;;;;16.96;nan;102251.34;5020507;28;20041;-75
2023/08/21 04:39:36;;;;;;;10.57;5.15;;;;;;;16.97;nan;102239.94;5026052;28;20025;-75
2023/08/21 04:42:02;;;;;;;7.70;5.15;;;;;;;17.02;nan;102255.59;5024568;28;20057;-75
2023/08/21 04:44:27;;;;;;;8.57;4.72;;;;;;;17.14;nan;102257.03;5025986;28;20466;-75
2023/08/21 04:46:52;;;;;;;12.60;5.22;;;;;;;17.14;nan;102257.03;5024661;28;20116;-75
2023/08/21 04:49:18;;;;;;;7.70;4.93;;;;;;;17.19;nan;102265.66;5025012;28;20495;-75
2023/08/21 04:51:43;;;;;;;9.18;5.00;;;;;;;17.19;nan;102265.66;5026703;28;20088;-76
2023/08/21 04:54:08;;;;;;;8.40;4.88;;;;;;;17.16;nan;102261.31;5023719;28;20077;-75
2023/08/21 04:56:33;;;;;;;9.52;4.88;;;;;;;17.02;nan;102252.97;5026419;28;20028;-76
2023/08/21 04:58:59;;;;;;;8.55;4.80;;;;;;;16.97;nan;102252.22;5026058;28;20469;-75
2023/08/21 05:01:24;;;;;;;10.57;5.55;;;;;;;17.00;nan;102265.31;5023936;28;20480;-76
2023/08/21 05:03:50;;;;;;;11.82;5.47;;;;;;;16.95;nan;102257.53;5025084;28;20526;-75
2023/08/21 05:06:15;;;;;;;9.55;5.32;;;;;;;16.92;nan;102257.63;5017423;28;20433;-76
2023/08/21 05:08:41;;;;;;;8.60;5.10;;;;;;;16.83;nan;102252.59;5029344;28;20164;-76
2023/08/21 05:11:06;;;;;;;8.10;4.68;;;;;;;16.80;nan;102260.56;5017829;28;20036;-76
2023/08/21 05:13:31;;;;;;;15.35;5.82;;;;;;;16.80;nan;102268.47;5029595;28;20022;-76
2023/08/21 05:15:57;;;;;;;10.90;5.80;;;;;;;16.74;nan;102263.34;5022165;28;20046;-75
2023/08/21 05:18:24;;;;;;;9.40;5.07;;;;;;;16.80;nan;102276.38;5024055;28;20042;-75
2023/08/21 05:20:50;;;;;;;11.20;5.53;;;;;;;16.83;nan;102274.53;5025492;28;20034;-75
2023/08/21 05:23:16;;;;;;;12.27;5.57;;;;;;;16.83;nan;102271.03;5014191;28;20048;-75
2023/08/21 05:25:43;;;;;;;9.80;5.68;;;;;;;16.96;nan;102282.09;5023728;28;20030;-76
2023/08/21 05:28:08;;;;;;;10.45;5.50;;;;;;;17.12;nan;102279.91;5026767;28;20022;-76
2023/08/21 05:30:35;;;;;;;12.55;5.72;;;;;;;17.19;nan;102276.19;5014982;28;20030;-76
2023/08/21 05:33:01;;;;;;;10.27;5.43;;;;;;;17.36;nan;102283.63;5023488;28;20049;-76
2023/08/21 05:35:26;;;;;;;10.52;5.60;;;;;;;17.34;nan;102278.41;5021664;28;20050;-75
2023/08/21 05:37:51;;;;;;;8.98;5.38;;;;;;;17.38;nan;102289.72;5021709;28;20034;-76
2023/08/21 05:40:17;;;;;;;10.93;5.72;;;;;;;17.41;nan;102290.50;5024372;28;20117;-76
2023/08/21 05:42:42;;;;;;;9.65;5.50;;;;;;;17.41;nan;102282.56;5026416;28;20075;-76
2023/08/21 05:45:08;;;;;;;8.18;5.63;;;;;;;17.41;nan;102281.72;5023259;28;20057;-76
2023/08/21 05:47:33;;;;;;;9.13;6.03;;;;;;;17.50;nan;102289.38;5025268;28;20072;-76
2023/08/21 05:49:58;;;;;;;11.98;5.88;;;;;;;17.47;nan;102278.91;5017167;28;20040;-76
2023/08/21 05:52:24;;;;;;;9.60;5.80;;;;;;;17.50;nan;102286.72;5023558;28;20022;-76
2023/08/21 05:54:49;;;;;;;9.35;6.03;;;;;;;17.54;nan;102289.22;5025476;28;20029;-76
2023/08/21 05:57:15;;;;;;;9.73;6.10;;;;;;;17.53;nan;102276.09;5022262;28;20495;-76
2023/08/21 05:59:46;;;;;;;9.02;5.97;;;;;;;17.63;nan;102301.28;5025510;28;20562;-76
2023/08/21 06:02:15;;;;;;;12.18;6.28;;;;;;;17.71;nan;102285.22;5024493;28;20096;-76
2023/08/21 06:04:42;;;;;;;10.27;6.00;;;;;;;17.75;nan;102287.69;5024788;28;20021;-75
2023/08/21 06:07:08;;;;;;;12.73;6.38;;;;;;;17.80;nan;102292.03;5025071;28;20022;-76
2023/08/21 06:09:33;;;;;;;10.18;6.50;;;;;;;17.89;nan;102300.53;5023762;28;20034;-76
2023/08/21 06:12:08;;;;;;;17.13;7.22;;;;;;;17.92;nan;102295.16;5024367;28;20481;-76
2023/08/21 06:14:34;;;;;;;13.27;7.05;;;;;;;17.90;nan;102296.09;5020632;28;20026;-76
2023/08/21 06:17:03;;;;;;;12.70;6.50;;;;;;;17.86;nan;102305.88;5025082;28;20407;-76
2023/08/21 06:19:29;;;;;;;13.57;6.95;;;;;;;17.93;nan;102302.16;5025273;28;20030;-75
2023/08/21 06:21:55;;;;;;;12.50;6.90;;;;;;;17.93;nan;102306.56;5021773;28;20080;-76
2023/08/21 06:24:21;;;;;;;10.43;6.78;;;;;;;17.99;nan;102319.56;5023890;28;20112;-75
2023/08/21 06:26:46;;;;;;;9.93;7.25;;;;;;;18.03;nan;102302.72;5016195;28;20101;-76
2023/08/21 06:29:11;;;;;;;12.10;7.80;;;;;;;18.12;nan;102313.00;5024350;28;20073;-75
2023/08/21 06:31:37;;;;;;;14.70;7.65;;;;;;;18.22;nan;102316.19;5021799;28;20109;-76
2023/08/21 06:34:02;;;;;;;17.92;8.02;;;;;;;18.31;nan;102318.56;5023382;28;20029;-76
2023/08/21 06:36:27;;;;;;;14.00;7.35;;;;;;;18.47;nan;102308.31;5023855;28;20045;-75
2023/08/21 06:38:53;;;;;;;13.02;7.28;;;;;;;18.53;nan;102302.84;5020593;28;20087;-76
2023/08/21 06:41:18;;;;;;;10.73;7.35;;;;;;;18.67;nan;102315.56;5012251;28;20542;-75
2023/08/21 06:43:45;;;;;;;15.98;7.50;;;;;;;18.72;nan;102303.13;5017718;28;20030;-72
2023/08/21 06:46:10;;;;;;;12.10;7.32;;;;;;;18.93;nan;102302.38;5015755;28;20064;-71
2023/08/21 06:48:38;;;;;;;12.10;7.35;;;;;;;19.14;nan;102310.47;5021735;28;20076;-72
2023/08/21 06:51:03;;;;;;;11.70;7.22;;;;;;;19.26;nan;102304.72;5019240;28;20045;-71
2023/08/21 06:53:28;;;;;;;16.02;7.15;;;;;;;19.37;nan;102306.97;5024829;28;20535;-71
2023/08/21 06:55:54;;;;;;;13.60;7.03;;;;;;;19.40;nan;102313.00;5020886;28;20063;-72
2023/08/21 06:58:19;;;;;;;14.25;7.50;;;;;;;19.44;nan;102307.59;5017740;28;20022;-71
2023/08/21 07:00:45;;;;;;;15.60;7.30;;;;;;;19.45;nan;102304.88;5015608;28;20033;-72
2023/08/21 07:03:10;;;;;;;12.75;7.10;;;;;;;19.45;nan;102310.19;5019503;28;20041;-72
2023/08/21 07:05:35;;;;;;;10.73;7.05;;;;;;;19.45;nan;102304.88;5021565;28;20029;-72
2023/08/21 07:08:01;;;;;;;13.43;7.63;;;;;;;19.39;nan;102303.34;5016411;28;20102;-72
2023/08/21 07:10:26;;;;;;;9.43;6.95;;;;;;;19.48;nan;102306.56;5024224;28;20034;-72
2023/08/21 07:12:53;;;;;;;10.88;7.10;;;;;;;19.49;nan;102297.69;5020583;28;20449;-72
2023/08/21 07:15:18;;;;;;;14.25;7.25;;;;;;;19.58;nan;102314.09;5020087;28;20025;-73
2023/08/21 07:17:43;;;;;;;11.75;6.25;;;;;;;19.61;nan;102316.63;5020085;28;20418;-72
2023/08/21 07:20:10;;;;;;;9.02;6.40;;;;;;;19.54;nan;102324.84;5020466;28;20050;-72
2023/08/21 07:22:35;;;;;;;11.60;6.72;;;;;;;19.49;nan;102316.22;5021761;28;20026;-72
2023/08/21 07:25:03;;;;;;;14.45;6.57;;;;;;;19.56;nan;102317.72;5013428;28;20386;-72
2023/08/21 07:27:29;;;;;;;12.35;6.72;;;;;;;19.61;nan;102307.81;5013255;28;20420;-72
2023/08/21 07:29:55;;;;;;;11.98;6.90;;;;;;;19.74;nan;102314.41;5012759;28;20497;-72
2023/08/21 07:32:20;;;;;;;12.27;5.95;;;;;;;19.82;nan;102314.13;5022969;28;20034;-72
2023/08/21 07:34:45;;;;;;;10.82;5.80;;;;;;;19.94;nan;102312.75;5015421;28;20474;-72
2023/08/21 07:37:11;;;;;;;10.52;5.47;;;;;;;20.00;nan;102312.53;5019401;28;20484;-72
2023/08/21 07:39:36;;;;;;;9.05;4.55;;;;;;;20.09;nan;102312.16;5024268;28;20032;-72
2023/08/21 07:42:01;;;;;;;9.38;4.25;;;;;;;20.16;nan;102307.47;5020989;28;20037;-72
2023/08/21 07:44:27;;;;;;;8.90;3.30;;;;;;;20.27;nan;102316.72;5023726;28;20025;-72
2023/08/21 07:46:52;;;;;;;11.65;4.85;;;;;;;20.33;nan;102321.75;5015536;28;20029;-72
2023/08/21 07:49:17;;;;;;;8.82;4.07;;;;;;;20.41;nan;102310.00;5016881;28;20053;-72
2023/08/21 07:51:43;;;;;;;8.27;3.78;;;;;;;20.47;nan;102312.34;5011689;28;20045;-73
2023/08/21 07:54:08;;;;;;;11.02;3.67;;;;;;;20.34;nan;102304.94;5019346;28;20111;-73
2023/08/21 07:56:35;;;;;;;10.55;4.22;;;;;;;20.42;nan;102319.66;5014089;28;20463;-73
2023/08/21 07:59:01;;;;;;;13.05;5.05;;;;;;;20.56;nan;102319.97;5021271;28;20026;-73
2023/08/21 08:01:26;;;;;;;12.50;4.65;;;;;;;20.61;nan;102318.00;5013416;28;20026;-73
2023/08/21 08:03:52;;;;;;;20.98;4.15;;;;;;;20.70;nan;102325.56;5012372;28;20105;-73
2023/08/21 08:06:18;;;;;;;8.73;3.75;;;;;;;20.87;nan;102323.97;5013686;28;20026;-73
2023/08/21 08:08:43;;;;;;;6.82;3.20;;;;;;;20.94;nan;102322.78;5016481;28;20147;-73
2023/08/21 08:11:09;;;;;;;8.88;3.75;;;;;;;20.94;nan;102326.28;5018496;28;20542;-73
2023/08/21 08:13:34;;;;;;;9.52;3.40;;;;;;;21.06;nan;102330.19;5029044;28;20030;-73
2023/08/21 08:16:00;;;;;;;5.82;3.60;;;;;;;21.22;nan;102328.59;5019984;28;20037;-73
2023/08/21 08:18:25;;;;;;;8.77;3.55;;;;;;;21.37;nan;102334.16;5017625;28;20033;-73
2023/08/21 08:20:51;;;;;;;9.45;2.88;;;;;;;21.40;nan;102326.06;5023108;28;20108;-73
2023/08/21 08:23:16;;;;;;;8.63;3.58;;;;;;;21.55;nan;102325.38;5016505;28;20105;-73
2023/08/21 08:25:42;;;;;;;6.75;2.88;;;;;;;21.64;nan;102324.06;5015104;28;20095;-76
2023/08/21 08:28:07;;;;;;;10.05;3.28;;;;;;;21.76;nan;102330.59;5025698;28;20061;-73
2023/08/21 08:30:34;;;;;;;6.40;2.42;;;;;;;21.85;nan;102317.75;5025670;28;20038;-73
2023/08/21 08:32:59;;;;;;;6.35;2.55;;;;;;;22.01;nan;102323.19;5022662;28;20439;-73
2023/08/21 08:35:25;;;;;;;5.38;2.20;;;;;;;22.10;nan;102325.38;5021390;28;20050;-73
2023/08/21 08:37:50;;;;;;;9.82;2.95;;;;;;;22.29;nan;102321.88;5019683;28;20041;-73
2023/08/21 08:40:15;;;;;;;6.05;1.90;;;;;;;22.44;nan;102321.97;5023407;28;20365;-73
2023/08/21 08:42:41;;;;;;;6.93;2.40;;;;;;;22.70;nan;102327.78;5024165;28;20476;-73
2023/08/21 08:45:07;;;;;;;6.32;3.17;;;;;;;22.99;nan;102315.66;5023119;28;20034;-74
2023/08/21 08:47:34;;;;;;;10.38;3.40;;;;;;;22.98;nan;102318.38;5018262;28;20385;-73
2023/08/21 08:50:03;;;;;;;7.15;3.38;;;;;;;22.97;nan;102328.16;5020303;28;20135;-73
2023/08/21 08:52:33;;;;;;;4.35;3.17;;;;;;;23.12;nan;102323.84;5022174;28;20105;-73
2023/08/21 08:54:59;;;;;;;9.27;3.22;;;;;;;23.39;nan;102326.84;5020511;28;20030;-73
2023/08/21 08:57:24;;;;;;;8.60;3.55;;;;;;;23.45;nan;102326.50;5026549;28;20084;-73
2023/08/21 08:59:50;;;;;;;9.85;3.50;;;;;;;23.62;nan;102327.38;5026066;28;20807;-73
2023/08/21 09:02:15;;;;;;;8.38;3.17;;;;;;;23.96;nan;102324.56;5021430;28;20149;-73
2023/08/21 09:04:41;;;;;;;5.00;2.58;;;;;;;24.27;nan;102336.16;5021465;28;20496;-73
2023/08/21 09:07:11;;;;;;;6.28;2.75;;;;;;;24.35;nan;102328.56;5026477;28;20109;-73
2023/08/21 09:09:40;;;;;;;5.10;2.33;;;;;;;24.43;nan;102326.38;5019635;28;20022;-73
2023/08/21 09:12:12;;;;;;;5.07;1.80;;;;;;;24.33;nan;102325.16;5019535;28;20029;-73
2023/08/21 09:14:42;;;;;;;7.22;2.28;;;;;;;24.43;nan;102322.84;5023616;28;20013;-73
2023/08/21 09:17:07;;;;;;;6.85;2.35;;;;;;;24.26;nan;102316.66;5022739;28;20065;-73
2023/08/21 09:19:33;;;;;;;5.93;2.40;;;;;;;23.86;nan;102323.38;5025370;28;20495;-73
2023/08/21 09:21:58;;;;;;;8.00;2.45;;;;;;;23.68;nan;102317.28;5023101;28;20024;-74
2023/08/21 09:24:24;;;;;;;6.20;2.25;;;;;;;23.60;nan;102317.66;5018651;28;20535;-73
2023/08/21 09:26:50;;;;;;;7.65;2.53;;;;;;;23.58;nan;102326.69;5020578;28;20504;-73
2023/08/21 09:29:15;;;;;;;5.05;2.17;;;;;;;23.64;nan;102320.16;5020474;28;20092;-73
2023/08/21 09:31:43;;;;;;;6.72;2.38;;;;;;;23.53;nan;102315.44;5022115;28;20030;-73
2023/08/21 09:34:09;;;;;;;12.60;2.65;;;;;;;23.67;nan;102320.00;5025554;28;20388;-73
2023/08/21 09:36:35;;;;;;;4.72;2.42;;;;;;;23.74;nan;102316.06;5012510;28;20453;-73
2023/08/21 09:39:02;;;;;;;6.38;1.95;;;;;;;23.77;nan;102310.56;5016843;28;20037;-73
2023/08/21 09:41:27;;;;;;;8.82;2.05;;;;;;;23.94;nan;102317.63;5014584;28;20029;-73
2023/08/21 09:43:58;;;;;;;6.75;2.40;;;;;;;24.00;nan;102312.81;5009503;28;20037;-73
2023/08/21 09:46:25;;;;;;;5.95;2.22;;;;;;;24.09;nan;102310.56;5023797;28;20026;-73
2023/08/21 09:48:52;;;;;;;9.38;2.42;;;;;;;24.12;nan;102305.06;5015111;28;20393;-73
2023/08/21 09:51:18;;;;;;;8.38;2.40;;;;;;;24.19;nan;102312.59;5017240;28;20125;-74
2023/08/21 09:53:44;;;;;;;7.05;2.00;;;;;;;24.27;nan;102315.69;5023349;28;20112;-73
2023/08/21 09:56:10;;;;;;;8.82;2.40;;;;;;;24.22;nan;102306.25;5015849;28;20077;-74
2023/08/21 09:58:36;;;;;;;3.83;2.15;;;;;;;24.27;nan;102309.50;5021928;28;20489;-73
2023/08/21 10:01:11;;;;;;;11.30;2.40;;;;;;;24.25;nan;102304.25;5007472;28;20479;-73
2023/08/21 10:03:38;;;;;;;5.13;2.40;;;;;;;24.36;nan;102310.75;5009551;28;20022;-74
2023/08/21 10:06:06;;;;;;;5.57;2.00;;;;;;;24.50;nan;102300.19;5011505;28;20068;-74
2023/08/21 10:08:35;;;;;;;5.80;2.53;;;;;;;24.58;nan;102300.59;5016610;28;20061;-74
2023/08/21 10:11:00;;;;;;;7.22;2.28;;;;;;;24.62;nan;102299.44;5016037;28;20025;-74
2023/08/21 10:13:26;;;;;;;7.30;2.28;;;;;;;24.73;nan;102299.69;5018810;28;20410;-73
2023/08/21 10:15:51;;;;;;;6.75;2.25;;;;;;;24.83;nan;102288.47;5020767;28;20600;-74
2023/08/21 10:18:17;;;;;;;6.93;2.00;;;;;;;24.84;nan;102288.34;5021043;28;20509;-74
2023/08/21 10:20:43;;;;;;;6.63;2.00;;;;;;;24.87;nan;102290.84;5015125;28;20064;-73
2023/08/21 10:23:08;;;;;;;5.55;1.77;;;;;;;24.93;nan;102286.94;5016433;28;20025;-74
2023/08/21 10:25:41;;;;;;;4.57;1.63;;;;;;;24.98;nan;102287.50;5013540;28;20500;-75
2023/08/21 10:28:07;;;;;;;4.95;2.03;;;;;;;24.95;nan;102290.34;5022930;28;20034;-74
2023/08/21 10:30:32;;;;;;;4.68;1.90;;;;;;;24.90;nan;102287.97;5012651;28;20037;-76
2023/08/21 10:32:59;;;;;;;3.45;1.67;;;;;;;24.96;nan;102295.59;5018482;28;20470;-76
2023/08/21 10:35:28;;;;;;;7.22;2.13;;;;;;;25.03;nan;102295.25;5008919;28;20072;-82
2023/08/21 10:38:16;;;;;;;4.85;1.80;;;;;;;25.16;nan;102294.41;5016637;28;20048;-75
2023/08/21 10:41:04;;;;;;;5.80;2.03;;;;;;;25.27;nan;102295.53;5014010;28;20097;-75
2023/08/21 10:43:46;;;;;;;7.50;1.95;;;;;;;25.32;nan;102294.31;5015660;28;20075;-76
2023/08/21 10:46:12;;;;;;;5.43;1.80;;;;;;;25.35;nan;102288.78;5018562;28;20026;-76
2023/08/21 10:48:39;;;;;;;4.78;1.90;;;;;;;25.44;nan;102288.19;5016310;28;20425;-75
2023/08/21 10:51:07;;;;;;;6.28;1.90;;;;;;;25.64;nan;102278.06;5021677;28;20061;-75
2023/08/21 10:53:33;;;;;;;6.00;1.85;;;;;;;25.53;nan;102283.22;5016455;28;20061;-76
2023/08/21 10:56:05;;;;;;;6.55;2.30;;;;;;;25.51;nan;102293.16;5020486;28;20100;-75
2023/08/21 10:58:46;;;;;;;4.28;1.88;;;;;;;25.55;nan;102292.84;5023242;28;20037;-75
2023/08/21 11:01:15;;;;;;;4.65;2.28;;;;;;;25.72;nan;102286.41;5013712;28;20392;-76
2023/08/21 11:03:41;;;;;;;7.93;1.98;;;;;;;25.59;nan;102274.81;5027011;28;20469;-76
2023/08/21 11:06:10;;;;;;;4.18;2.03;;;;;;;25.84;nan;102295.50;5020755;28;20025;-76
2023/08/21 11:08:36;;;;;;;4.95;1.98;;;;;;;26.26;nan;102286.44;5021744;28;20026;-76
2023/08/21 11:11:04;;;;;;;4.32;2.30;;;;;;;26.49;nan;102270.72;5017245;28;20025;-75
2023/08/21 11:13:30;;;;;;;4.97;2.35;;;;;;;26.80;nan;102288.16;5024618;28;20096;-76
2023/08/21 11:16:03;;;;;;;3.75;1.67;;;;;;;27.05;nan;102269.41;5015282;28;20026;-76
2023/08/21 11:18:37;;;;;;;4.47;1.80;;;;;;;27.19;nan;102276.50;5018528;28;20025;-76
2023/08/21 11:21:09;;;;;;;6.82;2.42;;;;;;;27.27;nan;102276.81;5021938;28;20029;-76
2023/08/21 11:23:37;;;;;;;5.97;2.10;;;;;;;27.20;nan;102266.63;5012535;28;20469;-75
2023/08/21 11:26:03;;;;;;;5.15;2.17;;;;;;;27.20;nan;102264.81;5009401;28;20380;-76
2023/08/21 11:28:29;;;;;;;4.20;2.15;;;;;;;27.12;nan;102252.94;5019490;28;20041;-75
2023/08/21 11:30:56;;;;;;;7.32;1.83;;;;;;;27.37;nan;102262.75;5016978;28;20088;-76
2023/08/21 11:33:21;;;;;;;8.15;2.30;;;;;;;27.53;nan;102276.72;5016219;28;20065;-75
2023/08/21 11:35:47;;;;;;;5.63;2.08;;;;;;;27.57;nan;102275.56;5013756;28;20078;-74